Time;durP1;ratioP1;P1;durP2;ratioP2;P2;SDS_P1;SDS_P2;PMS_P1;PMS_P2;Temp;Humidity;BMP_temperature;BMP_pressure;BME280_temperature;BME280_humidity;BME280_pressure;Samples;Min_cycle;Max_cycle;Signal;HPM_P1;HPM_P2
2022/09/20 00:01:37;;;;;;;1.95;1.63;;;;;;;;;;4994839;28;20029;-61
2022/09/20 00:04:03;;;;;;;1.42;1.33;;;;;;;;;;4994128;28;20034;-60
2022/09/20 00:06:29;;;;;;;1.52;1.42;;;;;;;;;;4994242;28;20040;-60
2022/09/20 00:08:55;;;;;;;2.97;1.48;;;;;;;;;;4995008;28;20611;-60
2022/09/20 00:11:27;;;;;;;1.90;1.50;;;;;;;;;;4995100;28;20030;-60
2022/09/20 00:29:20;;;;;;;3.17;2.15;;;;;;;;;;4992962;28;20060;-62
2022/09/20 00:31:46;;;;;;;1.48;1.38;;;;;;;;;;4993458;28;20096;-60
2022/09/20 00:52:16;;;;;;;2.42;2.10;;;;;;;;;;4999259;28;20057;-60
2022/09/20 00:54:41;;;;;;;3.42;1.30;;;;;;;;;;4998478;28;20046;-60
2022/09/20 00:57:07;;;;;;;4.03;1.52;;;;;;;;;;4998035;28;20026;-60
2022/09/20 00:59:33;;;;;;;2.85;1.83;;;;;;;;;;4998307;28;20110;-60
2022/09/20 01:32:37;;;;;;;2.00;1.70;;;;;;;;;;4988072;28;20170;-60
2022/09/20 01:35:02;;;;;;;1.83;1.38;;;;;;;;;;4994033;28;20038;-62
2022/09/20 01:37:33;;;;;;;3.40;1.50;;;;;;;;;;4992688;28;20033;-60
2022/09/20 01:40:10;;;;;;;1.35;1.15;;;;;;;;;;4989415;28;20461;-60
2022/09/20 02:04:27;;;;;;;2.17;1.30;;;;;;;;;;4992667;28;20128;-62
2022/09/20 02:06:55;;;;;;;2.47;1.27;;;;;;;;;;4992054;28;20038;-61
2022/09/20 02:09:29;;;;;;;1.30;1.20;;;;;;;;;;4993016;28;20056;-62
2022/09/20 02:11:58;;;;;;;0.93;0.90;;;;;;;;;;4977516;28;20413;-61
2022/09/20 02:23:31;;;;;;;0.85;0.85;;;;;;;;;;4992622;28;20718;-61
2022/09/20 02:25:59;;;;;;;1.05;1.05;;;;;;;;;;4993103;28;20034;-60
2022/09/20 02:28:30;;;;;;;1.20;1.10;;;;;;;;;;4990494;28;20574;-61
2022/09/20 02:30:58;;;;;;;0.95;0.95;;;;;;;;;;4992406;28;20060;-60
2022/09/20 02:36:35;;;;;;;1.20;0.98;;;;;;;;;;4991542;28;20025;-61
2022/09/20 02:39:18;;;;;;;1.17;1.10;;;;;;;;;;4991390;28;20045;-61
2022/09/20 03:12:15;;;;;;;2.50;1.90;;;;;;;;;;4997119;28;20069;-61
2022/09/20 03:14:45;;;;;;;2.83;2.38;;;;;;;;;;5012147;28;20037;-61
2022/09/20 03:17:22;;;;;;;2.45;2.25;;;;;;;;;;5010182;28;20029;-61
2022/09/20 03:19:47;;;;;;;2.85;2.47;;;;;;;;;;5008285;28;20033;-60
2022/09/20 03:43:45;;;;;;;2.33;2.17;;;;;;;;;;5014770;28;20079;-61
2022/09/20 03:46:17;;;;;;;3.05;2.03;;;;;;;;;;5014679;28;20091;-61
2022/09/20 03:48:42;;;;;;;2.35;2.10;;;;;;;;;;5013856;28;20071;-61
2022/09/20 04:03:27;;;;;;;2.03;1.83;;;;;;;;;;5014000;28;20109;-61
2022/09/20 04:05:52;;;;;;;2.28;1.48;;;;;;;;;;5015040;28;20040;-61
2022/09/20 04:08:18;;;;;;;3.63;1.77;;;;;;;;;;5013138;28;20026;-62
2022/09/20 04:13:58;;;;;;;2.17;1.70;;;;;;;;;;5011032;28;20060;-61
2022/09/20 04:16:33;;;;;;;1.92;1.80;;;;;;;;;;5014223;28;20057;-62
2022/09/20 04:19:03;;;;;;;1.85;1.73;;;;;;;;;;5012646;28;20033;-61
2022/09/20 04:43:30;;;;;;;1.77;1.25;;;;;;;;;;4923436;29;20071;-60
2022/09/20 05:26:26;;;;;;;1.50;1.40;;;;;;;;;;5007373;28;20115;-66
2022/09/20 05:29:11;;;;;;;1.58;1.20;;;;;;;;;;5008684;28;20371;-65
2022/09/20 05:31:37;;;;;;;1.58;1.48;;;;;;;;;;5010641;28;20113;-63
2022/09/20 05:34:20;;;;;;;2.25;2.05;;;;;;;;;;5010348;28;20100;-60
2022/09/20 05:36:46;;;;;;;2.03;1.40;;;;;;;;;;5011617;28;20068;-61
2022/09/20 05:39:30;;;;;;;1.80;1.70;;;;;;;;;;5013116;28;20519;-64
2022/09/20 05:42:17;;;;;;;1.80;1.60;;;;;;;;;;5011725;28;20567;-64
2022/09/20 05:45:01;;;;;;;1.83;1.70;;;;;;;;;;5012148;28;20112;-63
2022/09/20 05:47:26;;;;;;;3.17;1.98;;;;;;;;;;5011743;28;20736;-63
2022/09/20 05:50:15;;;;;;;1.85;1.73;;;;;;;;;;5011718;28;20141;-63
2022/09/20 05:52:53;;;;;;;1.88;1.77;;;;;;;;;;5013014;28;20523;-63
2022/09/20 05:55:42;;;;;;;1.88;1.77;;;;;;;;;;5012531;28;20503;-63
2022/09/20 05:58:20;;;;;;;2.35;1.92;;;;;;;;;;5011988;28;20018;-62
2022/09/20 06:01:05;;;;;;;2.95;1.90;;;;;;;;;;5011017;28;20335;-64
2022/09/20 06:03:47;;;;;;;1.77;1.65;;;;;;;;;;5013518;28;20037;-64
2022/09/20 06:06:15;;;;;;;1.75;1.65;;;;;;;;;;5013626;28;20041;-63
2022/09/20 06:08:43;;;;;;;2.95;1.77;;;;;;;;;;5011867;28;20025;-63
2022/09/20 06:11:09;;;;;;;1.85;1.70;;;;;;;;;;5013632;28;20033;-64
2022/09/20 06:13:58;;;;;;;1.75;1.65;;;;;;;;;;5012979;28;20022;-65
2022/09/20 06:16:29;;;;;;;3.38;1.98;;;;;;;;;;5011977;28;20038;-63
2022/09/20 06:19:11;;;;;;;3.83;1.75;;;;;;;;;;5009190;28;20125;-64
2022/09/20 06:21:47;;;;;;;2.80;2.55;;;;;;;;;;5010646;28;20560;-63
2022/09/20 06:24:23;;;;;;;1.90;1.80;;;;;;;;;;5010828;28;20387;-64
2022/09/20 06:26:51;;;;;;;2.50;1.65;;;;;;;;;;5010694;28;20049;-63
2022/09/20 06:29:19;;;;;;;3.55;1.70;;;;;;;;;;4991706;28;20072;-64
2022/09/20 06:31:44;;;;;;;1.80;1.70;;;;;;;;;;5011688;28;20036;-63
2022/09/20 06:34:12;;;;;;;2.90;1.40;;;;;;;;;;5010731;28;20042;-64
2022/09/20 06:42:09;;;;;;;2.15;1.70;;;;;;;;;;5011031;28;20467;-63
2022/09/20 06:44:38;;;;;;;1.90;1.77;;;;;;;;;;5010668;28;20037;-63
2022/09/20 06:47:06;;;;;;;6.32;2.47;;;;;;;;;;5011873;28;20116;-63
2022/09/20 06:49:34;;;;;;;1.52;1.42;;;;;;;;;;5006701;28;20080;-63
2022/09/20 06:51:59;;;;;;;1.60;1.50;;;;;;;;;;5005842;28;20030;-63
2022/09/20 06:54:25;;;;;;;2.42;1.63;;;;;;;;;;5011209;28;20029;-63
2022/09/20 06:56:52;;;;;;;2.28;1.60;;;;;;;;;;5012713;28;20491;-63
2022/09/20 06:59:17;;;;;;;3.78;2.92;;;;;;;;;;5015246;28;20053;-65
2022/09/20 07:01:43;;;;;;;2.67;2.20;;;;;;;;;;5015558;28;20475;-64
2022/09/20 07:04:08;;;;;;;2.15;2.00;;;;;;;;;;5015851;28;20010;-64
2022/09/20 07:06:33;;;;;;;3.25;2.00;;;;;;;;;;5015671;28;20030;-64
2022/09/20 07:08:59;;;;;;;3.25;2.42;;;;;;;;;;5015390;28;20413;-64
2022/09/20 07:11:24;;;;;;;2.40;2.20;;;;;;;;;;5015118;28;20507;-64
2022/09/20 07:13:51;;;;;;;2.13;1.92;;;;;;;;;;4998777;28;20026;-63
2022/09/20 07:16:16;;;;;;;2.92;2.03;;;;;;;;;;5012477;28;20030;-64
2022/09/20 07:18:41;;;;;;;3.40;1.92;;;;;;;;;;5009870;28;20040;-61
2022/09/20 07:21:11;;;;;;;3.47;2.42;;;;;;;;;;5015336;28;20028;-60
2022/09/20 07:23:36;;;;;;;2.88;2.38;;;;;;;;;;5015191;28;20050;-60
2022/09/20 07:26:01;;;;;;;2.20;2.00;;;;;;;;;;5006365;28;20840;-59
2022/09/20 07:28:27;;;;;;;2.17;1.85;;;;;;;;;;5014238;28;20034;-58
2022/09/20 07:30:53;;;;;;;2.47;2.20;;;;;;;;;;5013555;28;20480;-61
2022/09/20 07:33:20;;;;;;;4.45;2.60;;;;;;;;;;5012417;28;20113;-61
2022/09/20 07:35:47;;;;;;;2.40;2.20;;;;;;;;;;5009326;28;20085;-64
2022/09/20 07:38:13;;;;;;;2.10;2.00;;;;;;;;;;5013423;28;20113;-61
2022/09/20 07:40:38;;;;;;;4.18;2.13;;;;;;;;;;5015958;28;20021;-62
2022/09/20 07:43:03;;;;;;;2.47;2.28;;;;;;;;;;5010527;28;20029;-64
2022/09/20 07:45:29;;;;;;;5.63;2.05;;;;;;;;;;5010274;28;20034;-66
2022/09/20 07:47:57;;;;;;;2.13;2.03;;;;;;;;;;5013776;28;20594;-66
2022/09/20 07:50:22;;;;;;;2.72;2.35;;;;;;;;;;5016518;28;20116;-66
2022/09/20 07:52:47;;;;;;;6.80;3.28;;;;;;;;;;5014069;28;20044;-65
2022/09/20 07:55:12;;;;;;;2.35;2.15;;;;;;;;;;5014576;28;20532;-66
2022/09/20 07:57:38;;;;;;;2.00;1.80;;;;;;;;;;5015271;28;20022;-66
2022/09/20 08:00:08;;;;;;;2.05;1.90;;;;;;;;;;5010085;28;20482;-66
2022/09/20 08:02:34;;;;;;;2.58;2.08;;;;;;;;;;5010363;28;20451;-66
2022/09/20 08:04:59;;;;;;;2.75;2.42;;;;;;;;;;5012012;28;20045;-67
2022/09/20 08:07:24;;;;;;;5.13;2.00;;;;;;;;;;5010808;28;20026;-66
2022/09/20 08:09:50;;;;;;;3.00;1.95;;;;;;;;;;5012516;28;20460;-67
2022/09/20 08:12:16;;;;;;;1.52;1.42;;;;;;;;;;5014009;28;20472;-69
2022/09/20 08:14:41;;;;;;;5.63;2.00;;;;;;;;;;5008595;28;20033;-67
2022/09/20 08:17:09;;;;;;;5.50;1.83;;;;;;;;;;5013537;28;20132;-67
2022/09/20 08:19:35;;;;;;;2.10;1.85;;;;;;;;;;5009797;28;20025;-67
2022/09/20 08:22:00;;;;;;;3.47;1.90;;;;;;;;;;5009397;28;20018;-68
2022/09/20 08:24:26;;;;;;;3.08;1.52;;;;;;;;;;5013727;28;20079;-60
2022/09/20 08:26:51;;;;;;;1.90;1.50;;;;;;;;;;5009242;28;20503;-66
2022/09/20 08:29:16;;;;;;;2.28;1.95;;;;;;;;;;5009684;28;20133;-66
2022/09/20 08:31:42;;;;;;;4.18;1.80;;;;;;;;;;5014728;28;20099;-66
2022/09/20 08:34:09;;;;;;;2.45;1.73;;;;;;;;;;5014835;28;20384;-66
2022/09/20 08:36:35;;;;;;;3.00;1.75;;;;;;;;;;5014858;28;20018;-66
2022/09/20 08:39:01;;;;;;;1.65;1.55;;;;;;;;;;5012542;28;20026;-63
2022/09/20 08:41:46;;;;;;;1.52;1.42;;;;;;;;;;5013283;28;20461;-63
2022/09/20 08:44:24;;;;;;;3.40;1.25;;;;;;;;;;5009648;28;20080;-63
2022/09/20 08:46:55;;;;;;;1.83;1.38;;;;;;;;;;5009682;28;20033;-63
2022/09/20 08:49:27;;;;;;;3.30;1.42;;;;;;;;;;5010122;28;20041;-63
2022/09/20 08:51:53;;;;;;;3.45;1.30;;;;;;;;;;5011624;28;20053;-66
2022/09/20 08:54:23;;;;;;;3.45;1.40;;;;;;;;;;5013364;28;20018;-66
2022/09/20 08:56:48;;;;;;;2.10;1.55;;;;;;;;;;5011820;28;20032;-66
2022/09/20 08:59:15;;;;;;;2.25;1.20;;;;;;;;;;5009884;28;20022;-66
2022/09/20 09:01:43;;;;;;;2.90;1.63;;;;;;;;;;5012410;28;20345;-66
2022/09/20 09:04:16;;;;;;;1.52;1.40;;;;;;;;;;5014244;28;20036;-66
2022/09/20 09:06:41;;;;;;;1.33;1.25;;;;;;;;;;5013160;28;20036;-67
2022/09/20 09:09:10;;;;;;;1.50;1.40;;;;;;;;;;5007805;28;20488;-66
2022/09/20 09:11:39;;;;;;;3.55;1.75;;;;;;;;;;5008892;28;20029;-66
2022/09/20 09:16:56;;;;;;;1.65;1.35;;;;;;;;;;5013603;28;20058;-67
2022/09/20 09:19:26;;;;;;;1.70;1.30;;;;;;;;;;5013518;28;20502;-66
2022/09/20 09:21:55;;;;;;;4.30;1.70;;;;;;;;;;5011648;28;20040;-66
2022/09/20 09:24:21;;;;;;;3.17;1.63;;;;;;;;;;5012926;28;20112;-66
2022/09/20 09:26:47;;;;;;;1.73;1.63;;;;;;;;;;5003798;28;20064;-66
2022/09/20 09:29:15;;;;;;;2.03;1.40;;;;;;;;;;5013223;28;20464;-67
2022/09/20 09:31:43;;;;;;;1.70;1.60;;;;;;;;;;5013191;28;20087;-66
2022/09/20 09:34:28;;;;;;;1.50;1.08;;;;;;;;;;5011440;28;20025;-66
2022/09/20 09:36:54;;;;;;;1.00;0.88;;;;;;;;;;5008258;28;20487;-67
2022/09/20 09:39:27;;;;;;;0.90;0.90;;;;;;;;;;5009989;28;20038;-66
2022/09/20 09:41:53;;;;;;;1.38;1.08;;;;;;;;;;5007478;28;20060;-66
2022/09/20 09:44:22;;;;;;;1.30;1.20;;;;;;;;;;5011478;28;20113;-67
2022/09/20 09:46:52;;;;;;;1.25;1.00;;;;;;;;;;5011702;28;20120;-66
2022/09/20 09:49:34;;;;;;;2.22;1.17;;;;;;;;;;5012402;28;20064;-68
2022/09/20 09:52:13;;;;;;;2.42;1.27;;;;;;;;;;5011891;28;20030;-66
2022/09/20 09:54:43;;;;;;;1.95;1.30;;;;;;;;;;5011076;28;20605;-67
2022/09/20 09:57:14;;;;;;;1.70;1.08;;;;;;;;;;5013390;28;20064;-66
2022/09/20 09:59:58;;;;;;;1.20;1.10;;;;;;;;;;5012547;28;20029;-66
2022/09/20 10:02:41;;;;;;;1.30;1.20;;;;;;;;;;5003958;28;20037;-67
2022/09/20 10:05:21;;;;;;;1.65;1.10;;;;;;;;;;5013132;28;20506;-68
2022/09/20 10:07:59;;;;;;;1.23;1.02;;;;;;;;;;5014750;28;20234;-67
2022/09/20 10:10:38;;;;;;;3.95;1.85;;;;;;;;;;5011464;28;20519;-67
2022/09/20 10:13:03;;;;;;;1.23;1.20;;;;;;;;;;5012470;28;20152;-67
2022/09/20 10:15:44;;;;;;;2.25;1.42;;;;;;;;;;5011950;28;20411;-67
2022/09/20 10:18:29;;;;;;;1.38;1.38;;;;;;;;;;5011304;28;20045;-67
2022/09/20 10:21:21;;;;;;;2.70;1.10;;;;;;;;;;5006847;28;20033;-66
2022/09/20 10:24:06;;;;;;;1.98;1.88;;;;;;;;;;5007610;28;20050;-67
2022/09/20 10:26:47;;;;;;;1.73;1.63;;;;;;;;;;5009101;28;20049;-66
2022/09/20 10:29:31;;;;;;;1.95;1.35;;;;;;;;;;5011474;28;20048;-68
2022/09/20 10:32:05;;;;;;;1.80;1.27;;;;;;;;;;5011758;28;20083;-62
2022/09/20 10:34:56;;;;;;;1.00;1.00;;;;;;;;;;5010734;28;20026;-71
2022/09/20 10:37:31;;;;;;;1.75;1.40;;;;;;;;;;5012171;28;20505;-70
2022/09/20 10:40:07;;;;;;;1.95;1.70;;;;;;;;;;5007933;28;20503;-68
2022/09/20 10:45:19;;;;;;;0.80;0.80;;;;;;;;;;5007843;28;20161;-71
2022/09/20 10:47:52;;;;;;;1.00;1.00;;;;;;;;;;5007412;28;20026;-69
2022/09/20 10:50:22;;;;;;;0.80;0.80;;;;;;;;;;5012269;28;20030;-70
2022/09/20 10:52:48;;;;;;;0.90;0.90;;;;;;;;;;5003800;28;20036;-63
2022/09/20 10:55:14;;;;;;;0.80;0.80;;;;;;;;;;5011332;28;20026;-69
2022/09/20 10:57:44;;;;;;;0.75;0.75;;;;;;;;;;5006979;28;20030;-70
2022/09/20 11:00:21;;;;;;;1.02;1.02;;;;;;;;;;5009061;28;20029;-69
2022/09/20 11:02:58;;;;;;;1.20;1.13;;;;;;;;;;5010735;28;20153;-71
2022/09/20 11:05:45;;;;;;;1.30;1.20;;;;;;;;;;5007484;28;20089;-69
2022/09/20 11:08:21;;;;;;;1.40;1.27;;;;;;;;;;5009754;28;20503;-70
2022/09/20 11:10:59;;;;;;;1.50;1.40;;;;;;;;;;5012429;28;20023;-69
2022/09/20 11:13:24;;;;;;;3.53;1.90;;;;;;;;;;5007358;28;20025;-72
2022/09/20 11:16:02;;;;;;;3.17;1.63;;;;;;;;;;5006407;28;20041;-70
2022/09/20 11:18:39;;;;;;;4.57;1.30;;;;;;;;;;5008253;28;20056;-71
2022/09/20 11:21:06;;;;;;;3.20;1.27;;;;;;;;;;5006423;28;20021;-70
2022/09/20 11:23:31;;;;;;;1.10;1.10;;;;;;;;;;5011109;28;20087;-69
2022/09/20 11:26:06;;;;;;;2.22;1.02;;;;;;;;;;5009714;28;20049;-69
2022/09/20 11:28:43;;;;;;;1.27;1.23;;;;;;;;;;5007161;28;20028;-70
2022/09/20 11:31:24;;;;;;;2.35;1.42;;;;;;;;;;5009186;28;20404;-70
2022/09/20 11:34:01;;;;;;;1.65;1.27;;;;;;;;;;5011524;28;20466;-69
2022/09/20 11:36:33;;;;;;;2.13;1.48;;;;;;;;;;5011448;28;20025;-68
2022/09/20 11:39:04;;;;;;;1.52;1.42;;;;;;;;;;4993299;28;20522;-60
2022/09/20 11:41:30;;;;;;;5.63;1.48;;;;;;;;;;5009936;28;20022;-65
2022/09/20 11:43:59;;;;;;;1.65;1.52;;;;;;;;;;5010497;28;20033;-65
2022/09/20 11:46:25;;;;;;;1.52;1.42;;;;;;;;;;5014315;28;20032;-66
2022/09/20 11:48:51;;;;;;;1.75;1.65;;;;;;;;;;5015164;28;20057;-66
2022/09/20 11:51:25;;;;;;;2.35;1.70;;;;;;;;;;5015247;28;20440;-67
2022/09/20 11:53:53;;;;;;;2.42;1.30;;;;;;;;;;5015226;28;20472;-67
2022/09/20 11:56:26;;;;;;;2.95;1.40;;;;;;;;;;5015316;28;20060;-67
2022/09/20 11:58:54;;;;;;;1.55;1.45;;;;;;;;;;4996601;28;20029;-67
2022/09/20 12:01:25;;;;;;;1.70;1.60;;;;;;;;;;5014981;28;20026;-67
2022/09/20 12:03:51;;;;;;;9.18;5.07;;;;;;;;;;5015736;28;20028;-66
2022/09/20 12:06:29;;;;;;;6.50;4.65;;;;;;;;;;5009194;28;20041;-65
2022/09/20 12:08:57;;;;;;;2.10;1.55;;;;;;;;;;5010942;28;20030;-67
2022/09/20 12:11:28;;;;;;;2.25;2.10;;;;;;;;;;5011224;28;20431;-67
2022/09/20 12:14:14;;;;;;;3.00;1.65;;;;;;;;;;5009028;28;20029;-66
2022/09/20 12:16:43;;;;;;;1.20;1.20;;;;;;;;;;4994973;28;20033;-67
2022/09/20 12:19:13;;;;;;;1.85;1.40;;;;;;;;;;4995252;28;20470;-67
2022/09/20 12:21:57;;;;;;;1.17;1.17;;;;;;;;;;5012241;28;20049;-67
2022/09/20 12:24:23;;;;;;;1.23;1.10;;;;;;;;;;5008944;28;20384;-67
2022/09/20 12:26:49;;;;;;;1.45;1.35;;;;;;;;;;5011595;28;20528;-67
2022/09/20 12:29:24;;;;;;;1.20;1.10;;;;;;;;;;5009451;28;20118;-67
2022/09/20 12:31:50;;;;;;;2.55;1.75;;;;;;;;;;5008775;28;20034;-67
2022/09/20 12:34:15;;;;;;;3.45;1.45;;;;;;;;;;5011632;28;20075;-67
2022/09/20 12:37:03;;;;;;;1.15;1.15;;;;;;;;;;5008335;28;20030;-67
2022/09/20 12:39:36;;;;;;;1.42;1.25;;;;;;;;;;5012182;28;20810;-66
2022/09/20 12:42:03;;;;;;;4.88;1.80;;;;;;;;;;4995791;28;20033;-66
2022/09/20 12:44:34;;;;;;;2.05;1.67;;;;;;;;;;5013673;28;20113;-66
2022/09/20 12:47:05;;;;;;;2.75;1.95;;;;;;;;;;5013477;28;20022;-66
2022/09/20 12:55:32;;;;;;;0.80;0.80;;;;;;;;;;5014894;28;20143;-67
2022/09/20 12:58:03;;;;;;;1.00;1.00;;;;;;;;;;5012709;28;20358;-67
2022/09/20 13:00:39;;;;;;;2.60;1.40;;;;;;;;;;5013592;28;20029;-68
2022/09/20 13:03:13;;;;;;;1.10;1.10;;;;;;;;;;5013675;28;20022;-67
2022/09/20 13:05:40;;;;;;;1.50;1.10;;;;;;;;;;5014110;28;20641;-67
2022/09/20 13:08:12;;;;;;;1.83;1.50;;;;;;;;;;4993111;28;20052;-67
2022/09/20 13:10:40;;;;;;;1.50;1.40;;;;;;;;;;5014182;28;20037;-67
2022/09/20 13:13:12;;;;;;;1.42;1.33;;;;;;;;;;5015397;28;20030;-67
2022/09/20 13:15:39;;;;;;;1.02;1.02;;;;;;;;;;5010476;28;20030;-69
2022/09/20 13:18:05;;;;;;;1.33;1.33;;;;;;;;;;5008004;28;20037;-66
2022/09/20 13:20:33;;;;;;;1.30;1.20;;;;;;;;;;5012818;28;20411;-67
2022/09/20 13:22:59;;;;;;;1.08;1.05;;;;;;;;;;5008094;28;20029;-67
2022/09/20 13:25:24;;;;;;;3.33;1.40;;;;;;;;;;5009750;28;20029;-67
2022/09/20 13:27:55;;;;;;;0.70;0.70;;;;;;;;;;5012717;28;20049;-67
2022/09/20 13:30:25;;;;;;;1.63;1.02;;;;;;;;;;5012230;28;20028;-68
2022/09/20 13:32:51;;;;;;;0.80;0.80;;;;;;;;;;5012426;28;20035;-68
2022/09/20 13:35:21;;;;;;;1.23;0.95;;;;;;;;;;5010533;28;20030;-66
2022/09/20 13:37:49;;;;;;;0.82;0.70;;;;;;;;;;5008775;28;20529;-65
2022/09/20 13:40:19;;;;;;;0.80;0.80;;;;;;;;;;5011844;28;20080;-65
2022/09/20 13:42:46;;;;;;;0.70;0.70;;;;;;;;;;5008966;28;20025;-65
2022/09/20 13:45:12;;;;;;;0.80;0.80;;;;;;;;;;5010348;28;20036;-65
2022/09/20 13:47:40;;;;;;;0.80;0.80;;;;;;;;;;5009490;28;20033;-63
2022/09/20 13:50:17;;;;;;;1.23;0.77;;;;;;;;;;5009766;28;20022;-66
2022/09/20 13:52:46;;;;;;;1.27;0.60;;;;;;;;;;5008441;28;20053;-66
2022/09/20 13:55:21;;;;;;;0.70;0.70;;;;;;;;;;5008845;28;20028;-65
2022/09/20 13:57:47;;;;;;;1.95;0.80;;;;;;;;;;5009382;28;20416;-61
2022/09/20 14:00:15;;;;;;;0.80;0.80;;;;;;;;;;5009172;28;20099;-63
2022/09/20 14:02:40;;;;;;;1.73;1.02;;;;;;;;;;5010071;28;20066;-66
2022/09/20 14:05:06;;;;;;;1.67;0.80;;;;;;;;;;5007639;28;20388;-68
2022/09/20 14:07:32;;;;;;;2.45;0.90;;;;;;;;;;5011667;28;20093;-67
2022/09/20 14:09:57;;;;;;;1.23;1.15;;;;;;;;;;5011016;28;20105;-63
2022/09/20 14:12:23;;;;;;;1.00;0.80;;;;;;;;;;5008973;28;20091;-64
2022/09/20 14:14:50;;;;;;;0.95;0.70;;;;;;;;;;5008346;28;20120;-67
2022/09/20 14:17:17;;;;;;;0.90;0.90;;;;;;;;;;5010722;28;20025;-69
2022/09/20 14:19:45;;;;;;;0.70;0.70;;;;;;;;;;5013073;28;20508;-69
2022/09/20 14:22:17;;;;;;;0.57;0.57;;;;;;;;;;5012214;28;20056;-69
2022/09/20 14:24:54;;;;;;;0.70;0.70;;;;;;;;;;5010410;28;20022;-68
2022/09/20 14:27:22;;;;;;;0.70;0.70;;;;;;;;;;4989929;28;20058;-68
2022/09/20 14:29:49;;;;;;;1.00;0.80;;;;;;;;;;4991805;28;20231;-70
2022/09/20 14:32:17;;;;;;;0.65;0.65;;;;;;;;;;4994349;28;20100;-61
2022/09/20 14:35:03;;;;;;;1.20;1.10;;;;;;;;;;4990415;28;20034;-66
2022/09/20 14:37:29;;;;;;;2.05;0.80;;;;;;;;;;4992867;28;20511;-66
2022/09/20 14:39:56;;;;;;;0.75;0.75;;;;;;;;;;4991732;28;20452;-66
2022/09/20 14:42:26;;;;;;;0.82;0.82;;;;;;;;;;4992148;28;20037;-66
2022/09/20 14:44:51;;;;;;;0.90;0.90;;;;;;;;;;4991586;28;20030;-66
2022/09/20 14:47:24;;;;;;;1.38;0.90;;;;;;;;;;4991148;28;20022;-67
2022/09/20 14:49:50;;;;;;;1.10;1.00;;;;;;;;;;4987886;28;20025;-66
2022/09/20 14:52:24;;;;;;;0.90;0.90;;;;;;;;;;4985156;28;20091;-70
2022/09/20 14:54:58;;;;;;;1.85;0.70;;;;;;;;;;4991938;28;20037;-66
2022/09/20 14:57:24;;;;;;;0.80;0.80;;;;;;;;;;4988170;28;20029;-68
2022/09/20 14:59:52;;;;;;;0.98;0.88;;;;;;;;;;4989103;28;20023;-68
2022/09/20 15:02:19;;;;;;;2.55;2.35;;;;;;;;;;4990739;28;20026;-69
2022/09/20 15:04:53;;;;;;;1.00;0.80;;;;;;;;;;4986403;28;20038;-68
2022/09/20 15:07:18;;;;;;;0.90;0.90;;;;;;;;;;4991213;28;20057;-69
2022/09/20 15:09:43;;;;;;;0.80;0.80;;;;;;;;;;4986867;28;21044;-70
2022/09/20 15:12:13;;;;;;;1.67;1.27;;;;;;;;;;4989176;28;20034;-67
2022/09/20 15:14:40;;;;;;;1.10;1.00;;;;;;;;;;4987930;28;20034;-68
2022/09/20 15:17:06;;;;;;;1.65;1.23;;;;;;;;;;4991484;28;20027;-68
2022/09/20 15:19:31;;;;;;;0.75;0.75;;;;;;;;;;4992835;28;20189;-68
2022/09/20 15:21:56;;;;;;;1.08;0.88;;;;;;;;;;4995366;28;20030;-67
2022/09/20 15:24:21;;;;;;;1.40;1.05;;;;;;;;;;4994554;28;20030;-68
2022/09/20 15:26:47;;;;;;;1.30;0.88;;;;;;;;;;5001731;28;20058;-68
2022/09/20 15:29:14;;;;;;;4.13;1.10;;;;;;;;;;4997317;28;20081;-68
2022/09/20 15:31:39;;;;;;;0.80;0.80;;;;;;;;;;4994322;28;20108;-68
2022/09/20 15:34:05;;;;;;;2.80;0.90;;;;;;;;;;4990859;28;20022;-66
2022/09/20 15:36:31;;;;;;;1.65;0.75;;;;;;;;;;4994369;28;20366;-67
2022/09/20 15:38:56;;;;;;;1.30;1.20;;;;;;;;;;4995011;28;20133;-68
2022/09/20 15:41:21;;;;;;;2.20;1.33;;;;;;;;;;4995034;28;20025;-68
2022/09/20 15:43:48;;;;;;;1.25;0.90;;;;;;;;;;4996254;28;20019;-68
2022/09/20 15:46:25;;;;;;;1.58;1.10;;;;;;;;;;4995176;28;20025;-68
2022/09/20 15:48:50;;;;;;;1.73;1.02;;;;;;;;;;4990974;28;20108;-70
2022/09/20 15:51:15;;;;;;;2.53;0.95;;;;;;;;;;4991808;28;20091;-63
2022/09/20 15:53:43;;;;;;;1.17;1.08;;;;;;;;;;4995717;28;20380;-63
2022/09/20 15:56:21;;;;;;;0.93;0.93;;;;;;;;;;4994238;28;20053;-63
2022/09/20 15:58:50;;;;;;;0.90;0.90;;;;;;;;;;4995612;28;20065;-63
2022/09/20 16:01:15;;;;;;;1.30;1.20;;;;;;;;;;4993478;28;20030;-63
2022/09/20 16:03:42;;;;;;;2.17;1.00;;;;;;;;;;4990268;28;20068;-63
2022/09/20 16:06:08;;;;;;;1.20;1.10;;;;;;;;;;4990285;28;20022;-61
2022/09/20 16:08:34;;;;;;;1.33;1.00;;;;;;;;;;4995494;28;20034;-62
2022/09/20 16:11:00;;;;;;;0.80;0.80;;;;;;;;;;4993737;28;20096;-65
2022/09/20 16:13:25;;;;;;;0.90;0.90;;;;;;;;;;4996516;28;20026;-68
2022/09/20 16:15:57;;;;;;;1.27;0.95;;;;;;;;;;4995051;28;20033;-67
2022/09/20 16:21:07;;;;;;;2.45;1.25;;;;;;;;;;4992431;28;20056;-68
2022/09/20 16:23:32;;;;;;;1.23;1.13;;;;;;;;;;4994102;28;20026;-68
2022/09/20 16:25:57;;;;;;;2.65;1.13;;;;;;;;;;5001258;28;20495;-65
2022/09/20 16:28:22;;;;;;;1.17;1.00;;;;;;;;;;5014231;28;20033;-65
2022/09/20 16:30:55;;;;;;;1.23;1.00;;;;;;;;;;5014131;28;20029;-65
2022/09/20 16:33:20;;;;;;;1.95;1.48;;;;;;;;;;5014596;28;20132;-65
2022/09/20 16:35:45;;;;;;;1.73;1.33;;;;;;;;;;5014460;28;20144;-64
2022/09/20 16:38:11;;;;;;;2.05;1.70;;;;;;;;;;5015304;28;20042;-65
2022/09/20 16:40:37;;;;;;;2.13;1.30;;;;;;;;;;5015363;28;20030;-65
2022/09/20 16:43:04;;;;;;;3.22;1.27;;;;;;;;;;5012924;28;20464;-65
2022/09/20 16:45:29;;;;;;;1.23;1.08;;;;;;;;;;5008984;28;20037;-65
2022/09/20 16:47:56;;;;;;;0.90;0.90;;;;;;;;;;5013253;28;20037;-65
2022/09/20 16:50:22;;;;;;;1.13;1.08;;;;;;;;;;5009054;28;20629;-65
2022/09/20 16:52:48;;;;;;;2.75;1.30;;;;;;;;;;5008787;28;20022;-65
2022/09/20 16:55:13;;;;;;;3.00;1.02;;;;;;;;;;5010923;28;20084;-65
2022/09/20 16:57:38;;;;;;;1.00;1.00;;;;;;;;;;5009089;28;20952;-61
2022/09/20 17:00:04;;;;;;;1.83;1.00;;;;;;;;;;5011179;28;20060;-61
2022/09/20 17:02:29;;;;;;;1.25;1.13;;;;;;;;;;5008689;28;20062;-62
2022/09/20 17:04:55;;;;;;;1.13;1.10;;;;;;;;;;5013531;28;20038;-62
2022/09/20 17:07:22;;;;;;;2.65;1.30;;;;;;;;;;5010607;28;20741;-61
2022/09/20 17:09:47;;;;;;;4.85;1.95;;;;;;;;;;5008621;28;20037;-65
2022/09/20 17:12:13;;;;;;;1.92;1.00;;;;;;;;;;5010731;28;20558;-64
2022/09/20 17:14:39;;;;;;;1.30;1.20;;;;;;;;;;5009714;28;20160;-63
2022/09/20 17:17:04;;;;;;;2.65;1.10;;;;;;;;;;4995199;28;20160;-65
2022/09/20 17:19:29;;;;;;;1.30;1.20;;;;;;;;;;5004586;28;20034;-64
2022/09/20 17:21:54;;;;;;;2.45;1.00;;;;;;;;;;5011828;28;20392;-63
2022/09/20 17:24:20;;;;;;;1.80;1.10;;;;;;;;;;5009310;28;20425;-65
2022/09/20 17:26:46;;;;;;;1.90;1.20;;;;;;;;;;5012124;28;20073;-64
2022/09/20 17:29:14;;;;;;;1.85;1.10;;;;;;;;;;5013648;28;20026;-63
2022/09/20 17:31:40;;;;;;;2.25;1.42;;;;;;;;;;5013508;28;20120;-64
2022/09/20 17:34:07;;;;;;;3.28;1.90;;;;;;;;;;4996453;28;20025;-64
2022/09/20 17:36:34;;;;;;;1.92;1.70;;;;;;;;;;5013389;28;20034;-64
2022/09/20 17:39:00;;;;;;;1.67;1.58;;;;;;;;;;5012914;28;20032;-63
2022/09/20 17:41:25;;;;;;;2.03;1.70;;;;;;;;;;5012353;28;20030;-65
2022/09/20 17:43:57;;;;;;;2.42;1.63;;;;;;;;;;5011065;28;20029;-64
2022/09/20 17:46:32;;;;;;;3.28;1.38;;;;;;;;;;5009970;28;20480;-63
2022/09/20 17:48:59;;;;;;;1.80;1.65;;;;;;;;;;4994197;28;20021;-64
2022/09/20 17:51:26;;;;;;;2.80;1.38;;;;;;;;;;5011404;28;20037;-64
2022/09/20 17:53:51;;;;;;;1.38;1.27;;;;;;;;;;5013958;28;20025;-64
2022/09/20 17:56:17;;;;;;;4.75;1.17;;;;;;;;;;5013760;28;20503;-64
2022/09/20 17:58:43;;;;;;;1.88;1.27;;;;;;;;;;5014854;28;20610;-64
2022/09/20 18:01:15;;;;;;;0.95;0.88;;;;;;;;;;5011634;28;20580;-66
2022/09/20 18:03:42;;;;;;;3.53;1.98;;;;;;;;;;5012871;28;20120;-64
2022/09/20 18:06:11;;;;;;;1.50;1.40;;;;;;;;;;5012761;28;20074;-64
2022/09/20 18:08:36;;;;;;;1.47;1.10;;;;;;;;;;5011358;28;20049;-64
2022/09/20 18:11:01;;;;;;;1.40;1.30;;;;;;;;;;5010807;28;20026;-64
2022/09/20 18:13:28;;;;;;;1.50;1.40;;;;;;;;;;5012916;28;20424;-64
2022/09/20 18:15:53;;;;;;;1.77;1.50;;;;;;;;;;5010522;28;20034;-64
2022/09/20 18:18:19;;;;;;;2.23;1.90;;;;;;;;;;5013481;28;20604;-66
2022/09/20 18:20:44;;;;;;;3.70;1.97;;;;;;;;;;5013431;28;20021;-65
2022/09/20 18:23:09;;;;;;;2.97;1.80;;;;;;;;;;5012181;28;20124;-65
2022/09/20 18:26:20;;;;;;;3.23;2.10;;;;;;;;;;5010265;28;20147;-65
2022/09/20 18:28:20;;;;;;;2.28;1.60;;;;;;;;;;4992653;28;20200;-64
2022/09/20 18:30:45;;;;;;;2.53;1.77;;;;;;;;;;5006846;28;20511;-64
2022/09/20 18:33:11;;;;;;;2.23;2.03;;;;;;;;;;5006207;28;20409;-64
2022/09/20 18:35:40;;;;;;;2.33;1.97;;;;;;;;;;5009386;28;20379;-63
2022/09/20 18:38:06;;;;;;;1.97;1.50;;;;;;;;;;5011985;28;20075;-64
2022/09/20 18:40:35;;;;;;;1.73;1.40;;;;;;;;;;5010868;28;20030;-65
2022/09/20 18:43:00;;;;;;;2.30;1.50;;;;;;;;;;5004026;28;20030;-65
2022/09/20 18:45:25;;;;;;;2.03;1.83;;;;;;;;;;4981816;28;20088;-65
2022/09/20 18:47:58;;;;;;;1.40;1.30;;;;;;;;;;5010684;28;20033;-65
2022/09/20 18:50:25;;;;;;;2.30;1.10;;;;;;;;;;5011536;28;20030;-65
2022/09/20 18:52:51;;;;;;;0.93;0.93;;;;;;;;;;5008126;28;20025;-65
2022/09/20 18:55:16;;;;;;;0.80;0.80;;;;;;;;;;5009989;28;20549;-65
2022/09/20 18:57:42;;;;;;;0.80;0.80;;;;;;;;;;5011248;28;20633;-65
2022/09/20 19:00:10;;;;;;;1.27;0.80;;;;;;;;;;5011767;28;20033;-65
2022/09/20 19:02:54;;;;;;;1.10;1.03;;;;;;;;;;5014409;28;20029;-65
2022/09/20 19:05:41;;;;;;;2.03;0.93;;;;;;;;;;5015927;28;20033;-65